createdAt,value
2022-11-13T00:08:42.091Z,102411.06
2022-11-13T00:19:05.925Z,102404.19
2022-11-13T00:29:27.420Z,102387.88
2022-11-13T00:39:48.863Z,102389.59
2022-11-13T00:50:10.343Z,102387.09
2022-11-13T01:00:32.529Z,102383.63
2022-11-13T01:10:54.142Z,102393.22
2022-11-13T01:21:22.049Z,102375.25
2022-11-13T01:31:43.516Z,102365.81
2022-11-13T01:42:05.076Z,102366.63
2022-11-13T01:52:33.487Z,102333.94
2022-11-13T02:02:54.964Z,102322.81
2022-11-13T02:13:16.847Z,102317.63
2022-11-13T02:24:13.737Z,102311.59
2022-11-13T02:34:36.357Z,102300.47
2022-11-13T02:44:57.804Z,102304.03
2022-11-13T02:55:19.492Z,102295.44
2022-11-13T03:05:40.951Z,102297.22
2022-11-13T03:16:12.892Z,102287.06
2022-11-13T03:26:34.245Z,102278.69
2022-11-13T03:36:55.731Z,102274.56
2022-11-13T03:47:18.140Z,102265.97
2022-11-13T03:57:39.609Z,102259.19
2022-11-13T04:08:01.052Z,102261.88
2022-11-13T04:18:22.798Z,102250.81
2022-11-13T04:28:44.265Z,102235.38
2022-11-13T04:39:06.077Z,102223.44
2022-11-13T04:49:27.579Z,102207.25
2022-11-13T04:59:49.381Z,102202.13
2022-11-13T05:10:10.948Z,102201.34
2022-11-13T05:20:32.558Z,102210.69
2022-11-13T05:30:54.011Z,102208.16
2022-11-13T05:41:18.623Z,102202.28
2022-11-13T05:51:41.005Z,102190.28
2022-11-13T06:02:02.563Z,102168.06
2022-11-13T06:12:24.247Z,102169.88
2022-11-13T06:22:45.778Z,102156.28
2022-11-13T06:33:07.261Z,102153.88
2022-11-13T06:43:29.378Z,102162.59
2022-11-13T06:53:53.277Z,102157.50
2022-11-13T07:04:14.855Z,102156.00
2022-11-13T07:14:36.323Z,102143.84
2022-11-13T07:24:58.823Z,102145.34
2022-11-13T07:35:20.344Z,102137.44
2022-11-13T07:45:43.434Z,102117.50
2022-11-13T07:56:05.479Z,102124.31
2022-11-13T08:06:28.038Z,102137.91
2022-11-13T08:16:49.500Z,102126.59
2022-11-13T08:27:11.006Z,102115.22
2022-11-13T08:37:33.291Z,102116.66
2022-11-13T08:47:54.899Z,102114.06
2022-11-13T08:58:16.473Z,102109.53
2022-11-13T09:08:37.911Z,102102.38
2022-11-13T09:18:59.434Z,102100.22
2022-11-13T09:29:23.239Z,102104.97
2022-11-13T09:39:44.776Z,102097.66
2022-11-13T09:50:19.577Z,102091.31
2022-11-13T10:00:41.316Z,102084.78
2022-11-13T10:11:14.523Z,102080.81
2022-11-13T10:22:31.605Z,102079.38
2022-11-13T10:32:47.643Z,102078.75
2022-11-13T10:43:18.511Z,102083.34
2022-11-13T10:53:42.485Z,102052.44
2022-11-13T11:04:05.979Z,102044.97
2022-11-13T11:14:33.926Z,102028.72
2022-11-13T11:25:06.057Z,102006.56
2022-11-13T11:35:46.202Z,102007.66
2022-11-13T11:46:15.343Z,101998.69
2022-11-13T11:56:44.487Z,101987.63
2022-11-13T12:07:22.509Z,101983.56
2022-11-13T12:18:15.527Z,101966.63
2022-11-13T12:28:50.421Z,101966.09
2022-11-13T12:39:30.706Z,101944.69
2022-11-13T12:50:00.493Z,101934.16
2022-11-13T13:00:30.423Z,101920.78
2022-11-13T13:11:04.415Z,101921.75
2022-11-13T13:21:25.916Z,101906.72
2022-11-13T13:32:20.429Z,101904.59
2022-11-13T13:43:06.676Z,101882.69
2022-11-13T13:53:32.225Z,101871.19
2022-11-13T14:04:13.736Z,101873.00
2022-11-13T14:14:35.188Z,101867.78
2022-11-13T14:25:01.619Z,101862.59
2022-11-13T14:35:25.628Z,101860.88
2022-11-13T14:45:58.892Z,101862.66
2022-11-13T14:56:43.921Z,101847.50
2022-11-13T15:07:23.051Z,101845.78
2022-11-13T15:17:46.849Z,101843.94
2022-11-13T15:28:08.965Z,101846.41
2022-11-13T15:38:30.553Z,101840.22
2022-11-13T15:49:00.964Z,101816.78
2022-11-13T15:59:22.524Z,101817.47
2022-11-13T16:09:44.783Z,101802.00
2022-11-13T16:20:08.999Z,101816.00
2022-11-13T16:30:31.357Z,101817.09
2022-11-13T16:40:52.837Z,101819.75
2022-11-13T16:51:14.734Z,101809.78
2022-11-13T17:01:36.272Z,101799.06
2022-11-13T17:11:57.753Z,101819.75
2022-11-13T17:22:19.203Z,101809.69
2022-11-13T17:32:40.810Z,101804.47
2022-11-13T17:43:02.283Z,101795.66
2022-11-13T17:53:24.691Z,101795.25
2022-11-13T18:03:47.168Z,101790.34
2022-11-13T18:14:08.878Z,101774.66
2022-11-13T18:24:30.381Z,101770.94
2022-11-13T18:34:51.979Z,101750.28
2022-11-13T18:45:16.317Z,101743.97
2022-11-13T18:55:37.870Z,101733.38
2022-11-13T19:05:59.355Z,101735.69
2022-11-13T19:16:24.751Z,101725.16
2022-11-13T19:26:46.423Z,101715.44
2022-11-13T19:37:07.913Z,101713.72
2022-11-13T19:47:29.948Z,101704.81
2022-11-13T19:57:51.505Z,101708.94
2022-11-13T20:08:13.822Z,101695.97
2022-11-13T20:18:36.050Z,101688.03
2022-11-13T20:28:57.592Z,101691.41
2022-11-13T20:39:19.280Z,101690.16
2022-11-13T20:49:40.959Z,101683.19
2022-11-13T21:00:02.813Z,101669.06
2022-11-13T21:10:24.294Z,101640.44
2022-11-13T21:20:46.320Z,101634.16
2022-11-13T21:31:10.143Z,101627.94
2022-11-13T21:41:31.697Z,101614.97
2022-11-13T21:51:53.168Z,101613.19
2022-11-13T22:02:14.671Z,101604.75
2022-11-13T22:12:36.231Z,101595.22
2022-11-13T22:22:57.685Z,101572.59
2022-11-13T22:33:19.197Z,101553.56
2022-11-13T22:43:42.342Z,101545.66
2022-11-13T22:54:09.136Z,101537.56
2022-11-13T23:04:30.606Z,101532.19
2022-11-13T23:14:52.101Z,101522.38
2022-11-13T23:25:13.575Z,101500.53
2022-11-13T23:35:35.118Z,101469.34
2022-11-13T23:45:56.845Z,101464.16
2022-11-13T23:56:18.327Z,101458.06
